sensor_id;sensor_type;location;lat;lon;timestamp;P1;durP1;ratioP1;P2;durP2;ratioP2
64469;SDS011;50854;48.538;14.352;2023-06-19T00:00:41;10.17;;;6.23;;
64469;SDS011;50854;48.538;14.352;2023-06-19T00:01:41;8.43;;;6.53;;
64469;SDS011;50854;48.538;14.352;2023-06-19T00:02:42;9.33;;;6.80;;
64469;SDS011;50854;48.538;14.352;2023-06-19T00:03:42;9.20;;;6.78;;
64469;SDS011;50854;48.538;14.352;2023-06-19T00:04:43;9.23;;;6.70;;
64469;SDS011;50854;48.538;14.352;2023-06-19T00:05:43;10.13;;;6.80;;
64469;SDS011;50854;48.538;14.352;2023-06-19T00:06:43;12.53;;;6.90;;
64469;SDS011;50854;48.538;14.352;2023-06-19T00:07:43;9.37;;;7.10;;
64469;SDS011;50854;48.538;14.352;2023-06-19T00:08:43;10.67;;;7.07;;
64469;SDS011;50854;48.538;14.352;2023-06-19T00:09:44;8.93;;;6.90;;
64469;SDS011;50854;48.538;14.352;2023-06-19T00:10:44;10.07;;;6.73;;
64469;SDS011;50854;48.538;14.352;2023-06-19T00:11:45;11.00;;;7.57;;
64469;SDS011;50854;48.538;14.352;2023-06-19T00:12:45;9.77;;;7.23;;
64469;SDS011;50854;48.538;14.352;2023-06-19T00:13:45;9.40;;;6.60;;
64469;SDS011;50854;48.538;14.352;2023-06-19T00:14:45;9.33;;;7.00;;
64469;SDS011;50854;48.538;14.352;2023-06-19T00:15:47;9.70;;;6.85;;
64469;SDS011;50854;48.538;14.352;2023-06-19T00:16:47;10.90;;;6.60;;
64469;SDS011;50854;48.538;14.352;2023-06-19T00:17:47;11.43;;;6.90;;
64469;SDS011;50854;48.538;14.352;2023-06-19T00:18:47;9.17;;;7.20;;
64469;SDS011;50854;48.538;14.352;2023-06-19T00:19:48;10.13;;;7.70;;
64469;SDS011;50854;48.538;14.352;2023-06-19T00:20:48;14.48;;;6.75;;
64469;SDS011;50854;48.538;14.352;2023-06-19T00:21:49;8.68;;;6.72;;
64469;SDS011;50854;48.538;14.352;2023-06-19T00:22:49;8.67;;;6.90;;
64469;SDS011;50854;48.538;14.352;2023-06-19T00:23:52;9.18;;;6.88;;
64469;SDS011;50854;48.538;14.352;2023-06-19T00:24:52;10.32;;;6.65;;
64469;SDS011;50854;48.538;14.352;2023-06-19T00:25:52;9.33;;;6.57;;
64469;SDS011;50854;48.538;14.352;2023-06-19T00:26:53;9.97;;;7.07;;
64469;SDS011;50854;48.538;14.352;2023-06-19T00:27:53;8.73;;;6.50;;
64469;SDS011;50854;48.538;14.352;2023-06-19T00:28:53;10.70;;;6.63;;
64469;SDS011;50854;48.538;14.352;2023-06-19T00:29:53;8.93;;;6.80;;
64469;SDS011;50854;48.538;14.352;2023-06-19T00:30:54;8.13;;;6.70;;
64469;SDS011;50854;48.538;14.352;2023-06-19T00:31:54;10.20;;;6.33;;
64469;SDS011;50854;48.538;14.352;2023-06-19T00:32:54;9.27;;;6.67;;
64469;SDS011;50854;48.538;14.352;2023-06-19T00:33:55;9.18;;;6.55;;
64469;SDS011;50854;48.538;14.352;2023-06-19T00:34:56;10.33;;;6.43;;
64469;SDS011;50854;48.538;14.352;2023-06-19T00:35:56;10.50;;;7.13;;
64469;SDS011;50854;48.538;14.352;2023-06-19T00:36:57;9.03;;;6.57;;
64469;SDS011;50854;48.538;14.352;2023-06-19T00:39:00;8.27;;;6.13;;
64469;SDS011;50854;48.538;14.352;2023-06-19T00:40:00;8.60;;;6.50;;
64469;SDS011;50854;48.538;14.352;2023-06-19T00:41:01;10.87;;;7.70;;
64469;SDS011;50854;48.538;14.352;2023-06-19T00:42:01;11.23;;;6.70;;
64469;SDS011;50854;48.538;14.352;2023-06-19T00:43:01;9.20;;;6.67;;
64469;SDS011;50854;48.538;14.352;2023-06-19T00:44:02;9.73;;;6.97;;
64469;SDS011;50854;48.538;14.352;2023-06-19T00:45:02;11.70;;;7.27;;
64469;SDS011;50854;48.538;14.352;2023-06-19T00:46:02;12.67;;;6.97;;
64469;SDS011;50854;48.538;14.352;2023-06-19T00:47:03;9.52;;;7.05;;
64469;SDS011;50854;48.538;14.352;2023-06-19T00:48:04;8.95;;;7.28;;
64469;SDS011;50854;48.538;14.352;2023-06-19T00:49:04;10.48;;;7.35;;
64469;SDS011;50854;48.538;14.352;2023-06-19T00:50:04;9.20;;;7.40;;
64469;SDS011;50854;48.538;14.352;2023-06-19T00:51:05;59.28;;;8.80;;
64469;SDS011;50854;48.538;14.352;2023-06-19T00:52:05;9.43;;;7.53;;
64469;SDS011;50854;48.538;14.352;2023-06-19T00:53:06;9.82;;;6.93;;
64469;SDS011;50854;48.538;14.352;2023-06-19T00:54:07;12.05;;;7.13;;
64469;SDS011;50854;48.538;14.352;2023-06-19T00:55:08;10.52;;;6.88;;
64469;SDS011;50854;48.538;14.352;2023-06-19T00:56:09;13.50;;;7.10;;
64469;SDS011;50854;48.538;14.352;2023-06-19T00:57:09;8.97;;;6.77;;
64469;SDS011;50854;48.538;14.352;2023-06-19T00:58:10;12.20;;;6.97;;
64469;SDS011;50854;48.538;14.352;2023-06-19T00:59:13;10.35;;;7.18;;
64469;SDS011;50854;48.538;14.352;2023-06-19T01:00:14;9.23;;;6.88;;
64469;SDS011;50854;48.538;14.352;2023-06-19T01:01:15;9.37;;;6.80;;
64469;SDS011;50854;48.538;14.352;2023-06-19T01:02:15;8.83;;;6.50;;
64469;SDS011;50854;48.538;14.352;2023-06-19T01:03:15;9.00;;;6.60;;
64469;SDS011;50854;48.538;14.352;2023-06-19T01:04:16;10.23;;;6.38;;
64469;SDS011;50854;48.538;14.352;2023-06-19T01:05:16;10.90;;;7.53;;
64469;SDS011;50854;48.538;14.352;2023-06-19T01:06:21;11.63;;;6.78;;
64469;SDS011;50854;48.538;14.352;2023-06-19T01:07:43;9.75;;;6.43;;
64469;SDS011;50854;48.538;14.352;2023-06-19T01:08:50;9.90;;;6.50;;
64469;SDS011;50854;48.538;14.352;2023-06-19T01:09:53;9.90;;;6.93;;
64469;SDS011;50854;48.538;14.352;2023-06-19T01:10:54;19.42;;;7.30;;
64469;SDS011;50854;48.538;14.352;2023-06-19T01:12:02;9.70;;;7.20;;
64469;SDS011;50854;48.538;14.352;2023-06-19T01:14:06;9.80;;;7.20;;
64469;SDS011;50854;48.538;14.352;2023-06-19T01:15:08;9.75;;;7.05;;
64469;SDS011;50854;48.538;14.352;2023-06-19T01:16:09;13.82;;;7.55;;
64469;SDS011;50854;48.538;14.352;2023-06-19T01:17:09;9.82;;;6.93;;
64469;SDS011;50854;48.538;14.352;2023-06-19T01:18:10;9.50;;;6.95;;
64469;SDS011;50854;48.538;14.352;2023-06-19T01:19:11;9.10;;;6.80;;
64469;SDS011;50854;48.538;14.352;2023-06-19T01:20:15;11.35;;;7.25;;
64469;SDS011;50854;48.538;14.352;2023-06-19T01:21:16;11.63;;;7.63;;
64469;SDS011;50854;48.538;14.352;2023-06-19T01:23:26;12.02;;;7.80;;
64469;SDS011;50854;48.538;14.352;2023-06-19T01:24:26;12.23;;;7.27;;
64469;SDS011;50854;48.538;14.352;2023-06-19T01:25:26;9.90;;;7.30;;
64469;SDS011;50854;48.538;14.352;2023-06-19T01:26:27;9.43;;;7.32;;
64469;SDS011;50854;48.538;14.352;2023-06-19T01:27:27;11.80;;;7.40;;
64469;SDS011;50854;48.538;14.352;2023-06-19T01:28:31;10.10;;;7.00;;
64469;SDS011;50854;48.538;14.352;2023-06-19T01:29:31;9.23;;;7.20;;
64469;SDS011;50854;48.538;14.352;2023-06-19T01:30:32;13.67;;;7.00;;
64469;SDS011;50854;48.538;14.352;2023-06-19T01:31:44;11.93;;;7.45;;
64469;SDS011;50854;48.538;14.352;2023-06-19T01:34:06;11.02;;;7.30;;
64469;SDS011;50854;48.538;14.352;2023-06-19T01:35:07;12.20;;;7.45;;
64469;SDS011;50854;48.538;14.352;2023-06-19T01:36:09;11.35;;;7.50;;
64469;SDS011;50854;48.538;14.352;2023-06-19T01:38:11;12.23;;;7.03;;
64469;SDS011;50854;48.538;14.352;2023-06-19T01:39:12;10.85;;;7.32;;
64469;SDS011;50854;48.538;14.352;2023-06-19T01:40:14;14.07;;;7.03;;
64469;SDS011;50854;48.538;14.352;2023-06-19T01:42:15;12.57;;;7.17;;
64469;SDS011;50854;48.538;14.352;2023-06-19T01:43:16;13.30;;;7.37;;
64469;SDS011;50854;48.538;14.352;2023-06-19T01:51:48;8.85;;;6.75;;
64469;SDS011;50854;48.538;14.352;2023-06-19T01:53:50;12.17;;;7.37;;
64469;SDS011;50854;48.538;14.352;2023-06-19T01:54:51;9.60;;;7.27;;
64469;SDS011;50854;48.538;14.352;2023-06-19T01:55:51;9.15;;;6.60;;
64469;SDS011;50854;48.538;14.352;2023-06-19T01:56:55;10.98;;;7.50;;
64469;SDS011;50854;48.538;14.352;2023-06-19T01:57:55;13.75;;;7.03;;
64469;SDS011;50854;48.538;14.352;2023-06-19T01:58:56;12.07;;;6.43;;
64469;SDS011;50854;48.538;14.352;2023-06-19T01:59:56;14.17;;;6.87;;
64469;SDS011;50854;48.538;14.352;2023-06-19T02:00:56;14.70;;;7.03;;
64469;SDS011;50854;48.538;14.352;2023-06-19T02:01:57;11.10;;;7.50;;
64469;SDS011;50854;48.538;14.352;2023-06-19T02:02:57;11.93;;;7.57;;
64469;SDS011;50854;48.538;14.352;2023-06-19T02:03:57;14.50;;;7.60;;
64469;SDS011;50854;48.538;14.352;2023-06-19T02:04:57;16.33;;;7.20;;
64469;SDS011;50854;48.538;14.352;2023-06-19T02:05:58;10.07;;;7.07;;
64469;SDS011;50854;48.538;14.352;2023-06-19T02:06:58;18.93;;;7.63;;
64469;SDS011;50854;48.538;14.352;2023-06-19T02:07:58;13.43;;;7.77;;
64469;SDS011;50854;48.538;14.352;2023-06-19T02:08:59;11.23;;;7.67;;
64469;SDS011;50854;48.538;14.352;2023-06-19T02:09:59;10.20;;;7.23;;
64469;SDS011;50854;48.538;14.352;2023-06-19T02:10:59;12.37;;;7.70;;
64469;SDS011;50854;48.538;14.352;2023-06-19T02:11:59;13.83;;;7.60;;
64469;SDS011;50854;48.538;14.352;2023-06-19T02:13:00;11.70;;;7.70;;
64469;SDS011;50854;48.538;14.352;2023-06-19T02:14:00;10.93;;;7.33;;
64469;SDS011;50854;48.538;14.352;2023-06-19T02:15:00;13.67;;;7.33;;
64469;SDS011;50854;48.538;14.352;2023-06-19T02:16:00;9.27;;;7.27;;
64469;SDS011;50854;48.538;14.352;2023-06-19T02:17:01;12.23;;;7.23;;
64469;SDS011;50854;48.538;14.352;2023-06-19T02:18:02;9.73;;;7.73;;
64469;SDS011;50854;48.538;14.352;2023-06-19T02:19:02;17.20;;;6.85;;
64469;SDS011;50854;48.538;14.352;2023-06-19T02:20:02;9.40;;;7.10;;
64469;SDS011;50854;48.538;14.352;2023-06-19T02:21:05;12.25;;;7.78;;
64469;SDS011;50854;48.538;14.352;2023-06-19T02:22:06;11.30;;;7.37;;
64469;SDS011;50854;48.538;14.352;2023-06-19T02:23:06;14.43;;;7.68;;
64469;SDS011;50854;48.538;14.352;2023-06-19T02:24:06;9.70;;;6.83;;
64469;SDS011;50854;48.538;14.352;2023-06-19T02:25:07;9.83;;;6.63;;
64469;SDS011;50854;48.538;14.352;2023-06-19T02:26:07;10.90;;;6.83;;
64469;SDS011;50854;48.538;14.352;2023-06-19T02:27:07;9.40;;;6.37;;
64469;SDS011;50854;48.538;14.352;2023-06-19T02:28:07;9.10;;;6.57;;
64469;SDS011;50854;48.538;14.352;2023-06-19T02:29:08;9.70;;;6.67;;
64469;SDS011;50854;48.538;14.352;2023-06-19T02:30:08;8.73;;;6.63;;
64469;SDS011;50854;48.538;14.352;2023-06-19T02:31:08;12.00;;;6.87;;
64469;SDS011;50854;48.538;14.352;2023-06-19T02:32:09;10.17;;;7.37;;
64469;SDS011;50854;48.538;14.352;2023-06-19T02:33:09;8.82;;;6.95;;
64469;SDS011;50854;48.538;14.352;2023-06-19T02:34:10;10.77;;;7.33;;
64469;SDS011;50854;48.538;14.352;2023-06-19T02:35:10;11.43;;;7.03;;
64469;SDS011;50854;48.538;14.352;2023-06-19T02:36:11;10.60;;;7.18;;
64469;SDS011;50854;48.538;14.352;2023-06-19T02:37:12;10.48;;;6.38;;
64469;SDS011;50854;48.538;14.352;2023-06-19T02:38:13;11.67;;;7.50;;
64469;SDS011;50854;48.538;14.352;2023-06-19T02:39:13;11.60;;;7.40;;
64469;SDS011;50854;48.538;14.352;2023-06-19T02:40:14;9.73;;;6.70;;
64469;SDS011;50854;48.538;14.352;2023-06-19T02:41:14;9.43;;;7.45;;
64469;SDS011;50854;48.538;14.352;2023-06-19T02:42:15;10.73;;;6.80;;
64469;SDS011;50854;48.538;14.352;2023-06-19T02:43:15;9.48;;;6.95;;
64469;SDS011;50854;48.538;14.352;2023-06-19T02:44:16;11.40;;;7.20;;
64469;SDS011;50854;48.538;14.352;2023-06-19T02:45:16;12.60;;;7.33;;
64469;SDS011;50854;48.538;14.352;2023-06-19T02:46:16;9.17;;;6.83;;
64469;SDS011;50854;48.538;14.352;2023-06-19T02:47:17;10.50;;;6.93;;
64469;SDS011;50854;48.538;14.352;2023-06-19T02:48:18;10.13;;;6.90;;
64469;SDS011;50854;48.538;14.352;2023-06-19T02:49:19;12.48;;;7.72;;
64469;SDS011;50854;48.538;14.352;2023-06-19T02:50:19;9.13;;;7.20;;
64469;SDS011;50854;48.538;14.352;2023-06-19T02:51:20;10.90;;;7.30;;
64469;SDS011;50854;48.538;14.352;2023-06-19T13:51:54;11.48;;;5.20;;
64469;SDS011;50854;48.538;14.352;2023-06-19T13:52:55;7.25;;;5.40;;
64469;SDS011;50854;48.538;14.352;2023-06-19T13:53:55;6.55;;;5.00;;
64469;SDS011;50854;48.538;14.352;2023-06-19T13:54:55;8.23;;;5.37;;
64469;SDS011;50854;48.538;14.352;2023-06-19T13:55:56;6.93;;;4.80;;
64469;SDS011;50854;48.538;14.352;2023-06-19T13:56:56;8.07;;;4.70;;
64469;SDS011;50854;48.538;14.352;2023-06-19T13:57:56;8.00;;;5.22;;
64469;SDS011;50854;48.538;14.352;2023-06-19T13:58:59;5.47;;;4.97;;
64469;SDS011;50854;48.538;14.352;2023-06-19T14:00:00;7.93;;;5.35;;
64469;SDS011;50854;48.538;14.352;2023-06-19T14:01:00;7.80;;;5.33;;
64469;SDS011;50854;48.538;14.352;2023-06-19T14:02:00;6.07;;;5.47;;
64469;SDS011;50854;48.538;14.352;2023-06-19T14:03:01;8.10;;;5.40;;
64469;SDS011;50854;48.538;14.352;2023-06-19T14:04:02;8.18;;;5.68;;
64469;SDS011;50854;48.538;14.352;2023-06-19T14:05:04;6.23;;;5.10;;
64469;SDS011;50854;48.538;14.352;2023-06-19T14:06:04;7.45;;;5.03;;
64469;SDS011;50854;48.538;14.352;2023-06-19T14:07:04;8.35;;;5.10;;
64469;SDS011;50854;48.538;14.352;2023-06-19T14:08:05;7.10;;;5.20;;
64469;SDS011;50854;48.538;14.352;2023-06-19T14:09:06;7.97;;;5.00;;
64469;SDS011;50854;48.538;14.352;2023-06-19T14:10:06;6.20;;;4.80;;
64469;SDS011;50854;48.538;14.352;2023-06-19T14:11:07;6.60;;;4.95;;
64469;SDS011;50854;48.538;14.352;2023-06-19T14:12:07;9.70;;;5.22;;
64469;SDS011;50854;48.538;14.352;2023-06-19T14:13:08;5.65;;;4.93;;
64469;SDS011;50854;48.538;14.352;2023-06-19T14:14:09;6.68;;;4.82;;
64469;SDS011;50854;48.538;14.352;2023-06-19T14:15:09;6.53;;;5.47;;
64469;SDS011;50854;48.538;14.352;2023-06-19T14:16:10;6.30;;;5.35;;
64469;SDS011;50854;48.538;14.352;2023-06-19T14:17:10;8.35;;;5.65;;
64469;SDS011;50854;48.538;14.352;2023-06-19T14:18:10;7.57;;;5.20;;
64469;SDS011;50854;48.538;14.352;2023-06-19T14:19:11;6.43;;;5.15;;
64469;SDS011;50854;48.538;14.352;2023-06-19T14:20:11;8.13;;;5.60;;
64469;SDS011;50854;48.538;14.352;2023-06-19T14:21:12;6.85;;;5.45;;
64469;SDS011;50854;48.538;14.352;2023-06-19T14:22:12;13.90;;;5.70;;
64469;SDS011;50854;48.538;14.352;2023-06-19T14:23:13;12.27;;;5.33;;
64469;SDS011;50854;48.538;14.352;2023-06-19T14:24:13;8.77;;;5.43;;
64469;SDS011;50854;48.538;14.352;2023-06-19T14:25:14;12.02;;;6.18;;
64469;SDS011;50854;48.538;14.352;2023-06-19T14:26:14;7.68;;;6.43;;
64469;SDS011;50854;48.538;14.352;2023-06-19T14:27:15;8.02;;;6.05;;
64469;SDS011;50854;48.538;14.352;2023-06-19T14:28:15;16.92;;;9.77;;
64469;SDS011;50854;48.538;14.352;2023-06-19T14:29:16;12.13;;;5.93;;
64469;SDS011;50854;48.538;14.352;2023-06-19T14:30:18;6.05;;;5.45;;
64469;SDS011;50854;48.538;14.352;2023-06-19T14:31:19;7.45;;;5.68;;
64469;SDS011;50854;48.538;14.352;2023-06-19T14:32:22;8.48;;;4.97;;
64469;SDS011;50854;48.538;14.352;2023-06-19T14:33:26;5.93;;;5.20;;
64469;SDS011;50854;48.538;14.352;2023-06-19T14:34:26;12.05;;;5.40;;
64469;SDS011;50854;48.538;14.352;2023-06-19T14:35:27;8.27;;;5.38;;
64469;SDS011;50854;48.538;14.352;2023-06-19T14:36:27;6.53;;;5.82;;
64469;SDS011;50854;48.538;14.352;2023-06-19T14:37:27;6.47;;;5.17;;
64469;SDS011;50854;48.538;14.352;2023-06-19T14:38:28;12.20;;;5.72;;
64469;SDS011;50854;48.538;14.352;2023-06-19T14:39:31;5.75;;;5.10;;
64469;SDS011;50854;48.538;14.352;2023-06-19T14:40:31;6.63;;;5.17;;
64469;SDS011;50854;48.538;14.352;2023-06-19T14:41:31;6.68;;;5.30;;
64469;SDS011;50854;48.538;14.352;2023-06-19T14:42:32;7.03;;;5.87;;
64469;SDS011;50854;48.538;14.352;2023-06-19T14:43:32;5.63;;;5.03;;
64469;SDS011;50854;48.538;14.352;2023-06-19T14:44:34;6.95;;;5.63;;
64469;SDS011;50854;48.538;14.352;2023-06-19T14:45:35;9.07;;;5.07;;
64469;SDS011;50854;48.538;14.352;2023-06-19T14:46:35;5.95;;;5.35;;
64469;SDS011;50854;48.538;14.352;2023-06-19T14:47:39;8.00;;;5.90;;
64469;SDS011;50854;48.538;14.352;2023-06-19T14:48:39;8.23;;;5.40;;
64469;SDS011;50854;48.538;14.352;2023-06-19T14:49:40;11.30;;;5.63;;
64469;SDS011;50854;48.538;14.352;2023-06-19T14:50:40;6.32;;;5.40;;
64469;SDS011;50854;48.538;14.352;2023-06-19T14:51:41;7.40;;;5.45;;
64469;SDS011;50854;48.538;14.352;2023-06-19T14:52:42;9.32;;;5.50;;
64469;SDS011;50854;48.538;14.352;2023-06-19T14:53:42;7.43;;;5.65;;
64469;SDS011;50854;48.538;14.352;2023-06-19T14:54:43;11.18;;;5.13;;
64469;SDS011;50854;48.538;14.352;2023-06-19T14:55:43;7.50;;;5.33;;
64469;SDS011;50854;48.538;14.352;2023-06-19T14:56:45;9.90;;;5.60;;
64469;SDS011;50854;48.538;14.352;2023-06-19T14:57:48;8.10;;;5.40;;
64469;SDS011;50854;48.538;14.352;2023-06-19T14:58:48;5.70;;;5.10;;
64469;SDS011;50854;48.538;14.352;2023-06-19T14:59:48;12.25;;;5.60;;
64469;SDS011;50854;48.538;14.352;2023-06-19T15:00:49;7.33;;;4.80;;
64469;SDS011;50854;48.538;14.352;2023-06-19T15:02:50;8.87;;;5.57;;
64469;SDS011;50854;48.538;14.352;2023-06-19T15:03:50;6.65;;;5.28;;
64469;SDS011;50854;48.538;14.352;2023-06-19T15:04:50;7.03;;;5.70;;
64469;SDS011;50854;48.538;14.352;2023-06-19T15:05:51;8.77;;;5.33;;
64469;SDS011;50854;48.538;14.352;2023-06-19T15:06:51;6.37;;;5.67;;
64469;SDS011;50854;48.538;14.352;2023-06-19T15:07:51;11.17;;;5.70;;
64469;SDS011;50854;48.538;14.352;2023-06-19T15:08:52;6.72;;;5.07;;
64469;SDS011;50854;48.538;14.352;2023-06-19T15:09:52;6.47;;;5.00;;
64469;SDS011;50854;48.538;14.352;2023-06-19T15:10:52;6.82;;;5.20;;
64469;SDS011;50854;48.538;14.352;2023-06-19T15:11:53;8.50;;;5.30;;
64469;SDS011;50854;48.538;14.352;2023-06-19T15:12:53;7.88;;;5.95;;
64469;SDS011;50854;48.538;14.352;2023-06-19T15:13:53;6.00;;;5.40;;
64469;SDS011;50854;48.538;14.352;2023-06-19T15:14:54;7.77;;;5.40;;
64469;SDS011;50854;48.538;14.352;2023-06-19T15:15:54;8.50;;;5.17;;
64469;SDS011;50854;48.538;14.352;2023-06-19T15:16:54;9.27;;;5.28;;
64469;SDS011;50854;48.538;14.352;2023-06-19T15:17:55;6.50;;;5.03;;
64469;SDS011;50854;48.538;14.352;2023-06-19T15:18:55;10.02;;;4.95;;
64469;SDS011;50854;48.538;14.352;2023-06-19T15:19:55;6.95;;;5.57;;
64469;SDS011;50854;48.538;14.352;2023-06-19T15:20:56;7.97;;;5.00;;
64469;SDS011;50854;48.538;14.352;2023-06-19T15:21:56;5.97;;;5.37;;
64469;SDS011;50854;48.538;14.352;2023-06-19T15:22:56;6.43;;;5.10;;
64469;SDS011;50854;48.538;14.352;2023-06-19T15:23:57;8.33;;;5.13;;
64469;SDS011;50854;48.538;14.352;2023-06-19T15:24:57;6.55;;;5.30;;
64469;SDS011;50854;48.538;14.352;2023-06-19T15:25:57;6.57;;;5.07;;
64469;SDS011;50854;48.538;14.352;2023-06-19T15:26:57;7.70;;;5.20;;
64469;SDS011;50854;48.538;14.352;2023-06-19T15:27:59;9.15;;;5.43;;
64469;SDS011;50854;48.538;14.352;2023-06-19T15:29:00;5.90;;;5.25;;
64469;SDS011;50854;48.538;14.352;2023-06-19T15:30:00;6.70;;;5.03;;
64469;SDS011;50854;48.538;14.352;2023-06-19T15:31:01;6.38;;;5.30;;
64469;SDS011;50854;48.538;14.352;2023-06-19T15:32:01;6.72;;;5.20;;
64469;SDS011;50854;48.538;14.352;2023-06-19T15:33:01;6.47;;;5.25;;
64469;SDS011;50854;48.538;14.352;2023-06-19T15:34:02;7.07;;;5.78;;
64469;SDS011;50854;48.538;14.352;2023-06-19T15:35:03;10.80;;;5.82;;
64469;SDS011;50854;48.538;14.352;2023-06-19T15:36:03;11.15;;;5.40;;
64469;SDS011;50854;48.538;14.352;2023-06-19T15:37:04;9.40;;;5.50;;
64469;SDS011;50854;48.538;14.352;2023-06-19T15:38:04;9.02;;;5.35;;
64469;SDS011;50854;48.538;14.352;2023-06-19T15:39:04;9.07;;;5.10;;
64469;SDS011;50854;48.538;14.352;2023-06-19T15:40:05;7.33;;;5.73;;
64469;SDS011;50854;48.538;14.352;2023-06-19T15:41:05;9.90;;;5.93;;
64469;SDS011;50854;48.538;14.352;2023-06-19T15:42:06;8.50;;;5.30;;
64469;SDS011;50854;48.538;14.352;2023-06-19T15:43:06;6.75;;;5.43;;
64469;SDS011;50854;48.538;14.352;2023-06-19T15:44:07;11.73;;;6.25;;
64469;SDS011;50854;48.538;14.352;2023-06-19T15:45:07;6.22;;;5.35;;
64469;SDS011;50854;48.538;14.352;2023-06-19T15:46:07;7.72;;;5.55;;
64469;SDS011;50854;48.538;14.352;2023-06-19T15:47:08;6.40;;;5.38;;
64469;SDS011;50854;48.538;14.352;2023-06-19T15:48:08;7.22;;;5.35;;
64469;SDS011;50854;48.538;14.352;2023-06-19T15:49:11;5.90;;;5.30;;
64469;SDS011;50854;48.538;14.352;2023-06-19T15:50:11;7.55;;;5.43;;
64469;SDS011;50854;48.538;14.352;2023-06-19T15:51:11;9.05;;;5.55;;
64469;SDS011;50854;48.538;14.352;2023-06-19T15:52:12;6.95;;;5.55;;
64469;SDS011;50854;48.538;14.352;2023-06-19T15:53:13;8.32;;;5.35;;
64469;SDS011;50854;48.538;14.352;2023-06-19T15:54:13;6.82;;;5.20;;
64469;SDS011;50854;48.538;14.352;2023-06-19T15:55:13;6.43;;;5.43;;
64469;SDS011;50854;48.538;14.352;2023-06-19T15:56:14;11.10;;;7.75;;
64469;SDS011;50854;48.538;14.352;2023-06-19T15:57:17;12.63;;;8.55;;
64469;SDS011;50854;48.538;14.352;2023-06-19T15:58:17;8.57;;;6.28;;
64469;SDS011;50854;48.538;14.352;2023-06-19T15:59:18;7.27;;;5.47;;
64469;SDS011;50854;48.538;14.352;2023-06-19T16:00:18;7.67;;;5.53;;
64469;SDS011;50854;48.538;14.352;2023-06-19T16:01:18;6.65;;;5.75;;
64469;SDS011;50854;48.538;14.352;2023-06-19T16:02:19;6.50;;;5.50;;
64469;SDS011;50854;48.538;14.352;2023-06-19T16:03:19;5.93;;;5.33;;
64469;SDS011;50854;48.538;14.352;2023-06-19T16:04:20;6.65;;;5.28;;
64469;SDS011;50854;48.538;14.352;2023-06-19T16:05:20;11.27;;;6.00;;
64469;SDS011;50854;48.538;14.352;2023-06-19T16:06:20;7.72;;;5.97;;
64469;SDS011;50854;48.538;14.352;2023-06-19T16:07:21;6.87;;;5.93;;
64469;SDS011;50854;48.538;14.352;2023-06-19T16:08:21;7.60;;;5.50;;
64469;SDS011;50854;48.538;14.352;2023-06-19T16:09:24;8.60;;;5.40;;
64469;SDS011;50854;48.538;14.352;2023-06-19T16:10:25;6.93;;;5.67;;
64469;SDS011;50854;48.538;14.352;2023-06-19T16:11:25;9.03;;;5.57;;
64469;SDS011;50854;48.538;14.352;2023-06-19T16:12:25;6.20;;;5.27;;
64469;SDS011;50854;48.538;14.352;2023-06-19T16:13:25;6.20;;;5.53;;
64469;SDS011;50854;48.538;14.352;2023-06-19T16:14:26;6.87;;;5.67;;
64469;SDS011;50854;48.538;14.352;2023-06-19T16:15:26;7.27;;;5.67;;
64469;SDS011;50854;48.538;14.352;2023-06-19T16:16:28;14.50;;;5.85;;
64469;SDS011;50854;48.538;14.352;2023-06-19T16:17:28;7.70;;;5.60;;
64469;SDS011;50854;48.538;14.352;2023-06-19T16:18:29;7.77;;;5.20;;
64469;SDS011;50854;48.538;14.352;2023-06-19T16:19:29;7.83;;;5.33;;
64469;SDS011;50854;48.538;14.352;2023-06-19T16:20:29;8.30;;;5.87;;
64469;SDS011;50854;48.538;14.352;2023-06-19T16:21:29;9.20;;;5.50;;
64469;SDS011;50854;48.538;14.352;2023-06-19T16:22:30;11.70;;;5.80;;
64469;SDS011;50854;48.538;14.352;2023-06-19T16:23:30;7.47;;;5.57;;
64469;SDS011;50854;48.538;14.352;2023-06-19T16:24:30;7.07;;;5.53;;
64469;SDS011;50854;48.538;14.352;2023-06-19T16:25:31;7.80;;;6.03;;
64469;SDS011;50854;48.538;14.352;2023-06-19T16:26:31;7.67;;;6.07;;
64469;SDS011;50854;48.538;14.352;2023-06-19T16:27:31;7.50;;;5.80;;
64469;SDS011;50854;48.538;14.352;2023-06-19T16:28:31;6.93;;;5.50;;
64469;SDS011;50854;48.538;14.352;2023-06-19T16:29:32;8.43;;;6.22;;
64469;SDS011;50854;48.538;14.352;2023-06-19T16:30:33;7.63;;;5.50;;
64469;SDS011;50854;48.538;14.352;2023-06-19T16:31:33;6.30;;;5.53;;
64469;SDS011;50854;48.538;14.352;2023-06-19T16:32:33;6.65;;;5.10;;
64469;SDS011;50854;48.538;14.352;2023-06-19T16:33:34;6.35;;;5.57;;
64469;SDS011;50854;48.538;14.352;2023-06-19T16:34:35;8.57;;;5.95;;
64469;SDS011;50854;48.538;14.352;2023-06-19T16:35:35;7.00;;;5.90;;
64469;SDS011;50854;48.538;14.352;2023-06-19T16:36:36;7.90;;;6.03;;
64469;SDS011;50854;48.538;14.352;2023-06-19T16:37:36;9.30;;;5.50;;
64469;SDS011;50854;48.538;14.352;2023-06-19T16:38:37;7.95;;;5.93;;
64469;SDS011;50854;48.538;14.352;2023-06-19T16:39:37;6.57;;;5.73;;
64469;SDS011;50854;48.538;14.352;2023-06-19T16:40:37;6.35;;;5.72;;
64469;SDS011;50854;48.538;14.352;2023-06-19T16:41:38;6.47;;;5.38;;
64469;SDS011;50854;48.538;14.352;2023-06-19T16:42:38;8.00;;;6.43;;
64469;SDS011;50854;48.538;14.352;2023-06-19T16:43:38;8.83;;;5.80;;
64469;SDS011;50854;48.538;14.352;2023-06-19T16:44:39;7.60;;;5.90;;
64469;SDS011;50854;48.538;14.352;2023-06-19T16:46:40;8.13;;;6.13;;
64469;SDS011;50854;48.538;14.352;2023-06-19T16:47:41;9.15;;;5.47;;
64469;SDS011;50854;48.538;14.352;2023-06-19T16:48:41;8.97;;;5.17;;
64469;SDS011;50854;48.538;14.352;2023-06-19T16:49:41;7.53;;;5.37;;
64469;SDS011;50854;48.538;14.352;2023-06-19T16:50:42;6.40;;;5.18;;
64469;SDS011;50854;48.538;14.352;2023-06-19T16:51:42;10.43;;;6.00;;
64469;SDS011;50854;48.538;14.352;2023-06-19T16:52:42;11.40;;;5.50;;
64469;SDS011;50854;48.538;14.352;2023-06-19T16:53:43;8.60;;;5.50;;
64469;SDS011;50854;48.538;14.352;2023-06-19T16:54:43;6.43;;;5.35;;
64469;SDS011;50854;48.538;14.352;2023-06-19T16:55:44;7.33;;;5.43;;
64469;SDS011;50854;48.538;14.352;2023-06-19T16:56:44;8.10;;;5.47;;
64469;SDS011;50854;48.538;14.352;2023-06-19T16:57:45;6.43;;;5.53;;
64469;SDS011;50854;48.538;14.352;2023-06-19T16:58:46;7.82;;;5.47;;
64469;SDS011;50854;48.538;14.352;2023-06-19T16:59:47;7.97;;;5.53;;
64469;SDS011;50854;48.538;14.352;2023-06-19T17:00:47;6.53;;;5.63;;
64469;SDS011;50854;48.538;14.352;2023-06-19T17:01:48;6.35;;;5.75;;
64469;SDS011;50854;48.538;14.352;2023-06-19T17:02:52;8.02;;;5.78;;
64469;SDS011;50854;48.538;14.352;2023-06-19T17:03:55;6.00;;;5.10;;
64469;SDS011;50854;48.538;14.352;2023-06-19T17:04:55;6.67;;;5.70;;
64469;SDS011;50854;48.538;14.352;2023-06-19T17:05:56;6.43;;;5.65;;
64469;SDS011;50854;48.538;14.352;2023-06-19T17:06:56;7.55;;;5.55;;
64469;SDS011;50854;48.538;14.352;2023-06-19T17:07:56;7.55;;;5.43;;
64469;SDS011;50854;48.538;14.352;2023-06-19T17:08:57;9.85;;;5.55;;
64469;SDS011;50854;48.538;14.352;2023-06-19T17:09:57;7.87;;;5.73;;
64469;SDS011;50854;48.538;14.352;2023-06-19T17:10:57;7.43;;;5.30;;
64469;SDS011;50854;48.538;14.352;2023-06-19T17:11:58;7.93;;;5.47;;
64469;SDS011;50854;48.538;14.352;2023-06-19T17:12:58;9.05;;;5.72;;
64469;SDS011;50854;48.538;14.352;2023-06-19T17:13:59;7.47;;;6.13;;
64469;SDS011;50854;48.538;14.352;2023-06-19T17:14:59;7.05;;;5.75;;
64469;SDS011;50854;48.538;14.352;2023-06-19T17:16:00;5.60;;;5.07;;